Time;durP1;ratioP1;P1;durP2;ratioP2;P2;SDS_P1;SDS_P2;PMS_P1;PMS_P2;Temp;Humidity;BMP_temperature;BMP_pressure;BME280_temperature;BME280_humidity;BME280_pressure;Samples;Min_cycle;Max_cycle;Signal;HPM_P1;HPM_P2
2021/12/15 00:01:32;;;;;;;6.03;4.70;;;;;;;3.99;85.20;98845.63;6179039;28;20840;-74
2021/12/15 00:04:34;;;;;;;5.77;4.90;;;;;;;3.99;85.34;98850.88;6175492;28;20252;-74
2021/12/15 00:07:37;;;;;;;6.83;5.53;;;;;;;3.98;85.96;98846.56;6182721;28;20291;-74
2021/12/15 00:10:40;;;;;;;7.27;4.47;;;;;;;3.97;86.06;98841.41;6181755;28;20306;-74
2021/12/15 00:13:44;;;;;;;6.17;4.63;;;;;;;3.95;86.48;98832.75;6183082;28;20235;-74
2021/12/15 00:16:48;;;;;;;4.40;4.00;;;;;;;3.93;86.43;98845.00;6184124;28;20594;-74
2021/12/15 00:19:51;;;;;;;5.27;4.33;;;;;;;3.93;86.74;98847.63;6182140;28;20252;-73
2021/12/15 00:22:54;;;;;;;7.20;4.73;;;;;;;3.89;86.30;98846.91;6182543;28;20248;-74
2021/12/15 00:25:56;;;;;;;6.57;5.30;;;;;;;3.88;86.79;98844.34;6182843;28;20240;-74
2021/12/15 00:28:59;;;;;;;7.50;5.40;;;;;;;3.88;86.77;98847.81;6182186;28;20579;-75
2021/12/15 00:32:04;;;;;;;7.03;5.50;;;;;;;3.86;86.74;98846.16;6181770;28;20712;-75
2021/12/15 00:35:08;;;;;;;5.70;4.70;;;;;;;3.85;87.21;98844.44;6147951;28;20229;-74
2021/12/15 00:38:11;;;;;;;5.33;4.10;;;;;;;3.85;86.88;98842.69;6175040;28;20303;-74
2021/12/15 00:41:13;;;;;;;4.67;4.07;;;;;;;3.85;87.01;98842.69;6181187;28;20243;-74
2021/12/15 00:44:15;;;;;;;4.40;4.00;;;;;;;3.85;86.51;98840.06;6180761;28;20378;-75
2021/12/15 00:47:17;;;;;;;4.83;4.23;;;;;;;3.82;86.53;98840.16;6175373;28;20646;-75
2021/12/15 00:50:23;;;;;;;4.03;3.63;;;;;;;3.82;86.67;98834.09;6180494;28;20762;-73
2021/12/15 00:53:26;;;;;;;4.10;3.70;;;;;;;3.81;87.17;98845.44;6182434;28;20291;-75
2021/12/15 00:56:28;;;;;;;5.73;3.77;;;;;;;3.80;86.99;98839.34;6182522;28;20239;-75
2021/12/15 00:59:31;;;;;;;4.73;3.70;;;;;;;3.81;87.10;98840.22;6182158;28;20737;-74
2021/12/15 01:02:33;;;;;;;3.57;3.13;;;;;;;3.81;86.71;98851.50;6183042;28;20235;-75
2021/12/15 01:05:40;;;;;;;3.27;2.97;;;;;;;3.81;86.89;98850.66;6166200;28;20233;-74
2021/12/15 01:08:47;;;;;;;4.27;3.53;;;;;;;3.80;87.07;98860.25;6190137;28;20243;-75
2021/12/15 01:21:58;;;;;;;4.27;3.60;;;;;;;3.80;87.07;98862.00;6180335;28;20276;-74
2021/12/15 01:25:09;;;;;;;3.80;3.20;;;;;;;3.80;86.37;98855.03;6179778;28;20791;-75
2021/12/15 01:28:13;;;;;;;4.03;3.20;;;;;;;3.80;87.08;98857.63;6180967;28;20723;-75
2021/12/15 01:31:15;;;;;;;3.83;3.20;;;;;;;3.82;86.44;98870.63;6180501;28;20284;-74
2021/12/15 01:34:17;;;;;;;4.77;3.27;;;;;;;3.83;86.84;98869.75;6161160;28;20600;-76
2021/12/15 01:37:19;;;;;;;3.80;3.40;;;;;;;3.82;86.46;98870.63;6179772;28;20315;-75
2021/12/15 01:40:34;;;;;;;3.50;3.20;;;;;;;3.82;86.79;98862.81;6179838;28;20755;-74
2021/12/15 01:46:53;;;;;;;4.53;3.70;;;;;;;3.83;86.64;98874.97;6180891;28;20244;-76
2021/12/15 01:47:13;;;;;;;3.90;3.50;;;;;;;3.84;86.08;98874.91;6176429;28;20598;-75
2021/12/15 01:50:15;;;;;;;4.20;3.80;;;;;;;3.85;86.78;98867.94;6194680;28;20247;-75
2021/12/15 01:53:19;;;;;;;5.17;4.00;;;;;;;3.85;86.39;98870.53;6184313;28;20256;-74
2021/12/15 01:56:21;;;;;;;4.60;4.20;;;;;;;3.87;86.35;98866.13;6182201;28;20295;-74
2021/12/15 01:59:27;;;;;;;5.13;4.63;;;;;;;3.89;85.67;98870.41;6179324;28;20233;-75
2021/12/15 02:02:29;;;;;;;5.37;4.87;;;;;;;3.88;85.70;98862.63;6181296;28;20217;-74
2021/12/15 02:05:33;;;;;;;5.33;4.80;;;;;;;3.87;85.97;98866.13;6165759;28;20222;-74
2021/12/15 02:08:36;;;;;;;5.80;5.20;;;;;;;3.88;85.75;98860.84;6179054;28;20224;-76
2021/12/15 02:11:38;;;;;;;4.93;4.47;;;;;;;3.93;85.07;98868.50;6179108;28;20233;-74
2021/12/15 02:14:41;;;;;;;6.47;5.50;;;;;;;3.93;85.19;98868.50;6163137;28;20239;-74
2021/12/15 02:17:45;;;;;;;5.97;5.07;;;;;;;3.95;84.74;98864.09;6162683;28;20247;-74
2021/12/15 02:20:58;;;;;;;6.87;5.17;;;;;;;3.96;84.90;98871.88;6178315;28;20229;-73
2021/12/15 02:24:01;;;;;;;5.50;5.00;;;;;;;3.97;84.57;98872.75;6163581;28;20236;-71
2021/12/15 02:27:06;;;;;;;5.57;5.00;;;;;;;3.94;85.38;98858.03;6179169;28;20217;-74
2021/12/15 02:37:19;;;;;;;7.37;5.50;;;;;;;3.96;85.04;98866.66;6144092;28;20225;-74
2021/12/15 02:40:22;;;;;;;7.90;5.63;;;;;;;3.93;84.47;98861.53;6180177;28;20236;-75
2021/12/15 02:43:24;;;;;;;6.30;5.53;;;;;;;3.93;84.52;98864.16;6162628;28;20707;-73
2021/12/15 02:46:28;;;;;;;5.77;4.93;;;;;;;3.95;84.80;98866.72;6177999;28;20233;-75
2021/12/15 02:49:30;;;;;;;5.90;5.30;;;;;;;3.93;84.99;98861.53;6131707;28;20636;-74
2021/12/15 02:52:32;;;;;;;7.00;5.10;;;;;;;3.93;85.01;98866.75;6174437;28;20271;-74
2021/12/15 02:55:35;;;;;;;6.67;5.47;;;;;;;3.94;84.17;98859.78;6179211;28;20235;-74
2021/12/15 02:58:38;;;;;;;5.53;4.67;;;;;;;3.93;84.45;98856.31;6179354;28;20645;-74
2021/12/15 03:02:00;;;;;;;5.60;4.70;;;;;;;3.93;84.37;98868.50;6179764;28;20240;-75
2021/12/15 03:08:19;;;;;;;5.63;5.03;;;;;;;3.88;84.42;98868.69;6178218;28;20659;-73
2021/12/15 03:18:16;;;;;;;5.20;4.70;;;;;;;3.92;84.32;98866.81;6179027;28;20297;-73
2021/12/15 03:21:25;;;;;;;5.17;4.37;;;;;;;3.91;84.62;98878.16;6178443;28;20265;-73
2021/12/15 03:24:27;;;;;;;6.97;5.13;;;;;;;3.88;84.96;98875.66;6178870;28;20342;-74
2021/12/15 03:33:27;;;;;;;6.30;5.17;;;;;;;3.85;85.15;98883.59;6154894;28;20243;-73
2021/12/15 03:34:40;;;;;;;6.20;4.63;;;;;;;3.84;84.69;98880.13;6156649;28;20235;-74
2021/12/15 03:37:48;;;;;;;5.43;4.63;;;;;;;3.86;84.69;98886.16;6176899;28;20281;-75
2021/12/15 03:40:50;;;;;;;5.97;5.37;;;;;;;3.89;84.23;98877.38;6178704;28;20243;-74
2021/12/15 03:43:52;;;;;;;6.93;4.67;;;;;;;3.93;83.82;98884.19;6178660;28;20235;-74
2021/12/15 03:46:55;;;;;;;4.73;4.27;;;;;;;3.93;83.54;98890.25;6175214;28;21162;-74
2021/12/15 03:49:59;;;;;;;4.70;4.17;;;;;;;3.94;83.35;98888.50;6165427;28;20243;-75
2021/12/15 03:53:02;;;;;;;3.30;3.00;;;;;;;3.92;83.67;98891.16;6177112;28;20797;-74
2021/12/15 03:56:04;;;;;;;3.57;3.27;;;;;;;3.92;83.96;98882.47;6179699;28;20786;-74
2021/12/15 03:59:07;;;;;;;4.10;3.70;;;;;;;3.91;83.27;98878.16;6178884;28;20285;-74
2021/12/15 04:02:12;;;;;;;4.23;3.83;;;;;;;3.93;83.48;98890.25;6179909;28;20237;-74
2021/12/15 04:05:19;;;;;;;4.50;4.10;;;;;;;3.91;83.89;98881.63;6164831;28;20237;-74
2021/12/15 04:08:21;;;;;;;4.33;3.93;;;;;;;3.88;83.70;98870.44;6174117;28;20236;-74
2021/12/15 04:11:26;;;;;;;5.87;4.40;;;;;;;3.84;84.27;98872.31;6181103;28;20235;-74
2021/12/15 04:14:34;;;;;;;4.40;3.87;;;;;;;3.81;84.08;98874.16;6182815;28;20259;-72
2021/12/15 04:17:37;;;;;;;5.40;4.17;;;;;;;3.76;84.61;98871.72;6182971;28;20794;-74
2021/12/15 04:20:39;;;;;;;3.87;3.13;;;;;;;3.76;84.34;98873.47;6183212;28;20243;-75
2021/12/15 04:23:49;;;;;;;3.80;3.37;;;;;;;3.82;83.74;98892.38;6181663;28;20272;-74
2021/12/15 04:26:51;;;;;;;5.07;3.03;;;;;;;3.85;83.42;98888.81;6187884;28;20738;-75
2021/12/15 04:29:53;;;;;;;5.27;2.97;;;;;;;3.89;83.46;98891.28;6184011;28;20389;-75
2021/12/15 04:32:59;;;;;;;2.97;2.77;;;;;;;3.91;83.19;98891.22;6178377;28;20225;-75
2021/12/15 04:36:06;;;;;;;3.00;2.80;;;;;;;3.90;82.90;98900.81;6158950;28;20233;-74
2021/12/15 04:39:12;;;;;;;2.83;2.53;;;;;;;3.91;83.33;98901.66;6175764;28;20224;-73
2021/12/15 04:42:17;;;;;;;3.03;2.60;;;;;;;3.92;82.55;98905.97;6182169;28;20688;-73
2021/12/15 04:45:21;;;;;;;3.00;2.70;;;;;;;3.95;82.65;98913.72;6182885;28;20255;-74
2021/12/15 04:48:23;;;;;;;2.97;2.67;;;;;;;3.92;82.68;98909.44;6175675;28;20286;-74
2021/12/15 04:51:25;;;;;;;3.10;2.53;;;;;;;3.92;82.88;98925.13;6181186;28;20236;-75
2021/12/15 04:54:29;;;;;;;5.03;2.80;;;;;;;3.94;82.87;98927.69;6182633;28;20236;-72
2021/12/15 04:57:31;;;;;;;3.43;3.13;;;;;;;3.95;82.41;98929.38;6183006;28;20791;-74
2021/12/15 05:00:36;;;;;;;3.50;3.20;;;;;;;3.94;82.62;98930.28;6181755;28;20608;-74
2021/12/15 05:03:39;;;;;;;3.57;3.00;;;;;;;3.94;83.10;98936.38;6180230;28;20656;-74
2021/12/15 05:06:42;;;;;;;4.00;3.10;;;;;;;3.93;82.77;98932.03;6191636;28;20599;-74
2021/12/15 05:09:49;;;;;;;3.43;3.13;;;;;;;3.94;82.29;98938.13;6181554;28;20247;-73
2021/12/15 05:12:52;;;;;;;3.10;2.80;;;;;;;3.95;82.57;98934.63;6182956;28;20243;-75
2021/12/15 05:15:55;;;;;;;3.43;3.10;;;;;;;3.98;81.75;98934.53;6180327;28;20244;-74
2021/12/15 05:18:57;;;;;;;4.20;3.03;;;;;;;3.99;82.19;98938.84;6181189;28;20306;-73
2021/12/15 05:21:59;;;;;;;4.30;3.10;;;;;;;3.98;82.25;98940.59;6182007;28;20294;-74
2021/12/15 05:25:04;;;;;;;3.77;3.37;;;;;;;3.98;82.48;98944.97;6181885;28;20243;-75
2021/12/15 05:28:07;;;;;;;4.20;3.77;;;;;;;3.97;81.72;98951.94;6182236;28;20240;-75
2021/12/15 05:31:09;;;;;;;4.13;3.47;;;;;;;3.98;82.34;98960.63;6180648;28;20713;-73
2021/12/15 05:34:11;;;;;;;4.13;3.20;;;;;;;3.95;82.70;98958.97;6161864;28;20752;-74
2021/12/15 05:37:16;;;;;;;3.80;3.40;;;;;;;3.96;81.73;98958.06;6159059;28;20694;-75
2021/12/15 05:40:19;;;;;;;3.93;3.50;;;;;;;3.97;81.58;98964.16;6170632;28;20232;-74
2021/12/15 05:43:21;;;;;;;5.27;3.77;;;;;;;3.96;81.69;98959.81;6179997;28;20244;-75
2021/12/15 05:46:23;;;;;;;4.33;3.57;;;;;;;3.95;82.27;98961.59;6180365;28;20575;-74
2021/12/15 05:49:26;;;;;;;3.60;3.30;;;;;;;3.93;82.48;98971.22;6157863;28;20227;-75
2021/12/15 05:52:30;;;;;;;3.80;3.47;;;;;;;3.94;82.38;98977.31;6181273;28;20233;-72
2021/12/15 05:55:34;;;;;;;3.57;2.97;;;;;;;3.96;81.65;98972.88;6178728;28;20319;-74
2021/12/15 05:58:37;;;;;;;4.00;3.07;;;;;;;3.98;81.74;98973.69;6179257;28;20645;-74
2021/12/15 06:01:40;;;;;;;3.17;2.87;;;;;;;3.98;81.49;98979.78;6178858;28;20238;-74
2021/12/15 06:04:42;;;;;;;4.53;2.97;;;;;;;3.97;81.44;98983.28;6171279;28;20605;-75
2021/12/15 06:07:45;;;;;;;3.73;3.33;;;;;;;4.00;81.32;98987.53;6163715;28;20237;-74
2021/12/15 06:10:47;;;;;;;3.80;3.23;;;;;;;4.01;81.23;99000.53;6180160;28;20255;-74
2021/12/15 06:13:50;;;;;;;3.30;3.00;;;;;;;4.01;80.93;98999.69;6180467;28;20236;-74
2021/12/15 06:17:02;;;;;;;5.97;4.00;;;;;;;3.99;80.77;98999.72;6183929;28;20244;-73
2021/12/15 06:20:05;;;;;;;4.30;3.07;;;;;;;3.98;81.46;99000.66;6180485;28;20291;-74
2021/12/15 06:23:16;;;;;;;4.50;3.90;;;;;;;3.98;80.78;99005.03;6178538;28;20274;-74
2021/12/15 06:26:19;;;;;;;5.27;3.57;;;;;;;3.95;80.80;98998.16;6178078;28;20241;-74
2021/12/15 06:29:21;;;;;;;4.43;3.83;;;;;;;3.95;80.29;98995.53;6178502;28;20937;-73
2021/12/15 06:32:23;;;;;;;3.57;3.27;;;;;;;3.98;79.97;99010.25;6179589;28;20722;-74
2021/12/15 06:35:25;;;;;;;3.47;3.17;;;;;;;3.99;80.09;99020.63;6157890;28;20774;-74
2021/12/15 06:38:35;;;;;;;3.87;3.50;;;;;;;3.99;80.77;99027.63;6178473;28;20250;-72
2021/12/15 06:41:37;;;;;;;3.87;3.47;;;;;;;4.01;79.60;99039.72;6179138;28;20221;-74
2021/12/15 06:44:41;;;;;;;4.17;3.63;;;;;;;4.01;80.35;99044.94;6180996;28;20299;-75
2021/12/15 06:57:35;;;;;;;4.00;3.60;;;;;;;3.99;79.78;99057.19;6179804;28;20225;-74
2021/12/15 07:00:43;;;;;;;3.80;3.40;;;;;;;4.03;80.64;99071.03;6180228;28;20236;-75
2021/12/15 07:03:45;;;;;;;4.50;3.97;;;;;;;4.03;80.00;99074.50;6159987;28;20244;-73
2021/12/15 07:06:49;;;;;;;3.73;3.40;;;;;;;4.04;80.01;99072.72;6166021;28;20327;-74
2021/12/15 07:09:51;;;;;;;5.30;4.37;;;;;;;4.06;80.46;99076.16;6177758;28;20380;-74
2021/12/15 07:12:54;;;;;;;4.00;3.60;;;;;;;4.09;80.34;99083.91;6179106;28;20327;-74
2021/12/15 07:16:00;;;;;;;4.97;3.47;;;;;;;4.10;79.51;99096.03;6177249;28;20329;-74
2021/12/15 07:22:50;;;;;;;4.37;3.97;;;;;;;4.11;79.80;99089.06;6177601;28;20236;-74
2021/12/15 07:25:33;;;;;;;4.10;3.70;;;;;;;4.12;80.52;99096.00;6175233;28;20237;-74
2021/12/15 07:28:35;;;;;;;4.47;3.87;;;;;;;4.14;79.97;99104.66;6177656;28;20611;-74
2021/12/15 07:31:37;;;;;;;5.20;3.80;;;;;;;4.14;80.70;99105.50;6177593;28;20313;-74
2021/12/15 07:34:39;;;;;;;3.77;3.00;;;;;;;4.13;80.56;99108.16;6164757;28;20375;-74
2021/12/15 07:37:42;;;;;;;8.37;4.00;;;;;;;4.12;80.81;99117.75;6164562;28;20252;-74
2021/12/15 07:40:44;;;;;;;4.70;3.97;;;;;;;4.14;80.67;99125.53;6179528;28;20232;-74
2021/12/15 07:43:46;;;;;;;4.83;3.87;;;;;;;4.15;81.33;99122.88;6180131;28;20232;-74
2021/12/15 07:46:51;;;;;;;5.27;4.70;;;;;;;4.17;80.90;99120.22;6177155;28;20233;-72
2021/12/15 07:49:53;;;;;;;5.40;3.97;;;;;;;4.20;80.77;99128.81;6184028;28;20757;-72
2021/12/15 07:52:55;;;;;;;4.53;4.03;;;;;;;4.22;80.01;99131.38;6181176;28;20230;-74
2021/12/15 07:55:57;;;;;;;4.73;3.90;;;;;;;4.24;80.33;99140.03;6184048;28;20709;-74
2021/12/15 07:58:59;;;;;;;3.97;3.23;;;;;;;4.27;79.53;99135.56;6184018;28;20263;-74
2021/12/15 08:02:02;;;;;;;3.93;3.53;;;;;;;4.35;79.61;99141.41;6183414;28;20240;-75
2021/12/15 08:05:06;;;;;;;4.03;3.50;;;;;;;4.41;79.91;99137.72;6178963;28;20235;-74
2021/12/15 08:08:09;;;;;;;4.83;3.90;;;;;;;4.44;79.44;99141.09;6181037;28;20323;-74
2021/12/15 08:11:11;;;;;;;4.87;4.13;;;;;;;4.48;79.36;99136.66;6183907;28;20612;-75
2021/12/15 08:14:13;;;;;;;4.87;3.70;;;;;;;4.51;79.71;99141.75;6182388;28;20399;-75
2021/12/15 08:17:15;;;;;;;4.03;3.27;;;;;;;4.55;78.63;99146.00;6182892;28;20232;-75
2021/12/15 08:20:23;;;;;;;4.20;3.40;;;;;;;4.57;78.76;99148.56;6180828;28;20235;-76
2021/12/15 08:23:26;;;;;;;3.90;3.50;;;;;;;4.61;78.03;99144.91;6182907;28;20237;-75
2021/12/15 08:26:28;;;;;;;5.27;3.80;;;;;;;4.65;78.22;99146.53;6165379;28;20237;-75
2021/12/15 08:29:31;;;;;;;3.90;3.43;;;;;;;4.69;78.65;99154.22;6165022;28;20832;-75
2021/12/15 08:32:33;;;;;;;3.93;3.50;;;;;;;4.71;78.40;99149.78;6182425;28;20370;-74
2021/12/15 08:35:40;;;;;;;3.87;3.47;;;;;;;4.74;78.50;99157.56;6150458;28;20307;-75
2021/12/15 08:38:44;;;;;;;4.27;3.87;;;;;;;4.78;77.76;99161.78;6180660;28;20279;-74
2021/12/15 08:41:47;;;;;;;4.27;3.47;;;;;;;4.81;78.20;99169.50;6182182;28;20379;-75
2021/12/15 08:44:50;;;;;;;3.33;3.03;;;;;;;4.82;78.74;99175.59;6182790;28;20737;-74
2021/12/15 08:47:53;;;;;;;4.67;3.90;;;;;;;4.85;78.70;99174.66;6171043;28;20241;-75
2021/12/15 08:50:56;;;;;;;3.50;3.07;;;;;;;4.85;78.50;99183.34;6187582;28;20233;-74
2021/12/15 08:54:05;;;;;;;4.40;3.47;;;;;;;4.83;77.93;99186.00;6181372;28;20232;-75
2021/12/15 08:57:07;;;;;;;4.80;3.50;;;;;;;4.87;78.69;99184.16;6181626;28;20310;-76
2021/12/15 09:00:10;;;;;;;3.77;3.00;;;;;;;4.89;78.71;99187.56;6180531;28;20215;-76
2021/12/15 09:03:14;;;;;;;4.00;3.50;;;;;;;4.90;78.61;99180.56;6181031;28;20737;-74
2021/12/15 09:06:16;;;;;;;4.80;3.00;;;;;;;4.93;78.84;99196.16;6158685;28;20234;-74
2021/12/15 09:09:20;;;;;;;3.50;3.20;;;;;;;4.96;78.83;99181.25;6183011;28;20217;-74
2021/12/15 09:12:23;;;;;;;3.87;3.00;;;;;;;4.99;78.41;99186.34;6181216;28;20763;-75
2021/12/15 09:15:26;;;;;;;4.00;3.60;;;;;;;5.01;78.62;99189.78;6180933;28;20224;-75
2021/12/15 09:18:28;;;;;;;3.37;3.07;;;;;;;5.03;78.37;99187.09;6181583;28;20681;-74
2021/12/15 09:21:32;;;;;;;4.13;2.83;;;;;;;5.09;78.38;99185.13;6180683;28;20231;-75
2021/12/15 09:24:34;;;;;;;4.90;3.27;;;;;;;5.10;78.78;99183.38;6180306;28;20232;-76
2021/12/15 09:27:38;;;;;;;3.80;3.03;;;;;;;5.13;78.81;99191.13;6179883;28;20229;-75
2021/12/15 09:30:46;;;;;;;3.80;3.33;;;;;;;5.18;78.61;99192.69;6180786;28;20396;-75
2021/12/15 09:33:51;;;;;;;3.50;3.07;;;;;;;5.25;78.87;99192.47;6166744;28;20229;-74
2021/12/15 09:36:55;;;;;;;3.20;2.90;;;;;;;5.31;78.48;99187.00;6181669;28;20546;-75
2021/12/15 09:39:58;;;;;;;3.37;3.07;;;;;;;5.42;79.00;99193.56;6179143;28;20709;-75
2021/12/15 09:43:02;;;;;;;4.20;2.77;;;;;;;5.48;78.14;99187.28;6179557;28;20233;-75
2021/12/15 09:46:15;;;;;;;3.40;2.70;;;;;;;5.53;77.63;99190.59;6179581;28;20709;-75
2021/12/15 10:04:12;;;;;;;3.20;2.70;;;;;;;6.23;76.14;99175.75;6180624;28;20244;-75
2021/12/15 10:20:07;;;;;;;3.03;2.73;;;;;;;5.90;76.38;99177.88;6179958;28;20233;-76
2021/12/15 10:23:15;;;;;;;2.93;2.63;;;;;;;5.85;77.17;99171.06;6180649;28;20263;-75
2021/12/15 10:26:18;;;;;;;3.57;3.23;;;;;;;5.75;77.85;99167.09;6178580;28;20598;-76
2021/12/15 10:29:21;;;;;;;3.10;2.80;;;;;;;5.63;77.61;99160.53;6177147;28;20225;-74
2021/12/15 10:32:29;;;;;;;3.30;3.00;;;;;;;5.64;78.13;99162.25;6179533;28;20237;-74
2021/12/15 10:35:44;;;;;;;3.13;2.83;;;;;;;5.60;78.11;99159.78;6153759;28;20317;-74
2021/12/15 10:38:55;;;;;;;3.83;2.77;;;;;;;5.51;77.63;99166.22;6130490;28;20274;-74
2021/12/15 10:41:57;;;;;;;3.03;2.70;;;;;;;5.43;78.48;99176.09;6176543;28;20268;-75
2021/12/15 10:45:10;;;;;;;2.47;2.27;;;;;;;5.37;78.59;99171.97;6180602;28;20752;-75
2021/12/15 10:48:24;;;;;;;2.50;2.17;;;;;;;5.34;78.46;99164.22;6164061;28;20241;-74
2021/12/15 10:51:38;;;;;;;2.37;2.17;;;;;;;5.43;78.96;99152.53;6184526;28;20268;-75
2021/12/15 10:54:49;;;;;;;3.07;2.70;;;;;;;5.49;78.46;99162.81;6179139;28;20224;-75
2021/12/15 10:57:51;;;;;;;3.33;2.60;;;;;;;5.50;78.13;99161.88;6178036;28;20710;-76
2021/12/15 11:00:53;;;;;;;2.50;2.30;;;;;;;5.42;78.72;99159.53;6180035;28;20233;-75
2021/12/15 11:03:57;;;;;;;2.60;2.37;;;;;;;5.42;78.22;99158.69;6174204;28;20230;-74
2021/12/15 11:07:10;;;;;;;2.87;2.23;;;;;;;5.42;78.53;99146.47;6157251;28;20233;-74
2021/12/15 11:10:31;;;;;;;3.70;2.60;;;;;;;5.48;78.49;99145.41;6178313;28;20245;-74
2021/12/15 11:13:33;;;;;;;2.73;2.30;;;;;;;5.52;77.78;99144.34;6179523;28;20295;-75
2021/12/15 11:16:35;;;;;;;2.53;2.33;;;;;;;5.52;77.53;99142.59;6179438;28;20263;-74
2021/12/15 11:19:40;;;;;;;2.50;2.30;;;;;;;5.52;77.55;99136.50;6178231;28;20225;-73
2021/12/15 11:22:50;;;;;;;2.83;2.10;;;;;;;5.48;77.52;99137.53;6179691;28;20777;-74
2021/12/15 11:25:56;;;;;;;2.13;1.93;;;;;;;5.50;77.94;99133.06;6177224;28;20315;-74
2021/12/15 11:28:59;;;;;;;2.07;1.90;;;;;;;5.46;77.93;99126.25;6178644;28;20237;-73
2021/12/15 11:32:00;;;;;;;2.17;1.97;;;;;;;5.55;78.49;99134.63;6178050;28;20243;-74
2021/12/15 11:35:20;;;;;;;1.93;1.80;;;;;;;5.65;77.21;99129.06;6156029;28;20218;-73
2021/12/15 11:38:27;;;;;;;1.90;1.80;;;;;;;5.70;77.55;99140.19;6179130;28;20776;-76
2021/12/15 11:41:37;;;;;;;2.40;1.83;;;;;;;5.70;77.89;99133.19;6161309;28;20316;-72
2021/12/15 11:44:42;;;;;;;1.87;1.73;;;;;;;5.74;76.64;99133.94;6178890;28;20594;-75
2021/12/15 11:47:45;;;;;;;2.27;2.07;;;;;;;5.73;76.90;99132.25;6169407;28;20238;-75
2021/12/15 11:50:50;;;;;;;2.00;1.60;;;;;;;5.80;76.51;99123.22;6174133;28;20233;-75
2021/12/15 11:53:52;;;;;;;2.47;2.10;;;;;;;5.78;76.43;99120.69;6178539;28;20225;-75
2021/12/15 11:57:03;;;;;;;3.33;2.20;;;;;;;5.75;76.88;99123.41;6176490;28;20736;-76
2021/12/15 12:00:12;;;;;;;2.83;2.07;;;;;;;5.76;76.91;99125.13;6177394;28;20680;-73
2021/12/15 12:03:15;;;;;;;2.37;2.17;;;;;;;5.68;76.12;99124.56;6179630;28;20224;-74
2021/12/15 12:06:26;;;;;;;2.10;1.90;;;;;;;5.70;76.05;99114.88;6162560;28;20236;-75
2021/12/15 12:09:28;;;;;;;2.33;2.13;;;;;;;5.74;75.79;99105.13;6178828;28;20241;-72
2021/12/15 12:12:37;;;;;;;2.50;2.30;;;;;;;5.82;76.53;99103.06;6178413;28;20240;-75
2021/12/15 12:15:43;;;;;;;2.07;1.87;;;;;;;5.72;76.32;99099.09;6179238;28;20327;-75
2021/12/15 12:18:45;;;;;;;2.30;2.10;;;;;;;5.71;76.52;99094.75;6176891;28;20276;-74
2021/12/15 12:21:48;;;;;;;2.33;2.00;;;;;;;5.75;76.20;99088.50;6177522;28;20299;-73
2021/12/15 12:24:54;;;;;;;2.20;1.90;;;;;;;5.80;76.95;99090.03;6179316;28;20236;-74
2021/12/15 12:27:58;;;;;;;2.40;2.00;;;;;;;5.82;75.86;99093.44;6176897;28;20310;-75
2021/12/15 12:31:05;;;;;;;2.43;1.77;;;;;;;5.81;76.20;99094.34;6180350;28;20713;-75
2021/12/15 12:34:07;;;;;;;1.93;1.73;;;;;;;5.85;76.29;99076.75;6173177;28;20329;-75
2021/12/15 12:37:14;;;;;;;2.30;2.07;;;;;;;5.89;76.23;99081.00;6165934;28;20803;-74
2021/12/15 12:40:22;;;;;;;1.97;1.77;;;;;;;5.97;76.43;99078.94;6165919;28;20574;-74
2021/12/15 12:43:40;;;;;;;2.93;2.10;;;;;;;6.05;75.74;99087.34;6184962;28;20364;-73
2021/12/15 12:46:59;;;;;;;2.87;2.00;;;;;;;5.99;75.81;99078.88;6181529;28;20229;-74
2021/12/15 13:00:57;;;;;;;2.10;1.90;;;;;;;5.97;75.80;99093.81;6180835;28;20241;-76
2021/12/15 13:04:10;;;;;;;2.50;2.30;;;;;;;5.92;75.58;99097.44;6177079;28;20231;-75
2021/12/15 13:07:13;;;;;;;2.03;1.83;;;;;;;5.92;75.79;99094.84;6183444;28;20261;-75
2021/12/15 13:10:19;;;;;;;3.07;2.53;;;;;;;5.92;75.76;99092.22;6179912;28;20333;-75
2021/12/15 13:13:27;;;;;;;2.77;2.20;;;;;;;5.88;75.73;99092.41;6181561;28;20284;-76
2021/12/15 13:16:36;;;;;;;2.93;2.33;;;;;;;5.82;76.52;99096.06;6182642;28;20584;-76
2021/12/15 13:19:44;;;;;;;4.20;2.30;;;;;;;5.83;76.39;99092.53;6181827;28;20850;-74
2021/12/15 13:23:03;;;;;;;2.77;2.07;;;;;;;5.87;76.45;99090.66;6181220;28;20242;-75
2021/12/15 13:29:27;;;;;;;2.70;2.43;;;;;;;5.80;76.56;99095.25;6181794;28;20308;-75
2021/12/15 13:32:32;;;;;;;2.93;2.50;;;;;;;5.77;76.34;99095.41;6180314;28;20311;-73
2021/12/15 13:35:45;;;;;;;2.50;2.03;;;;;;;5.75;76.20;99097.22;6150392;28;20232;-75
2021/12/15 13:39:07;;;;;;;2.93;2.30;;;;;;;5.70;76.44;99095.69;6181776;28;20221;-75
2021/12/15 13:42:14;;;;;;;3.20;2.90;;;;;;;5.66;76.21;99100.19;6179051;28;20709;-74
2021/12/15 13:45:31;;;;;;;2.90;2.40;;;;;;;5.61;76.60;99104.75;6159447;28;20230;-75
2021/12/15 13:48:55;;;;;;;2.80;2.30;;;;;;;5.60;76.79;99108.25;6162602;28;20222;-75
2021/12/15 13:52:18;;;;;;;3.60;2.40;;;;;;;5.59;76.48;99105.72;6131873;28;20636;-75
2021/12/15 13:55:32;;;;;;;2.70;2.27;;;;;;;5.56;76.83;99111.94;6132977;28;20235;-74
2021/12/15 13:58:34;;;;;;;2.57;2.27;;;;;;;5.55;77.10;99108.44;6177542;28;20221;-75
2021/12/15 14:01:36;;;;;;;3.17;2.07;;;;;;;5.54;77.08;99108.50;6179737;28;20233;-75
2021/12/15 14:04:55;;;;;;;3.70;2.77;;;;;;;5.50;76.96;99113.00;6170981;28;20244;-73
2021/12/15 14:08:00;;;;;;;4.13;3.13;;;;;;;5.46;77.19;99111.41;6187786;28;20222;-75
2021/12/15 14:11:22;;;;;;;2.63;2.30;;;;;;;5.45;76.69;99112.31;6180521;28;20283;-74
2021/12/15 14:14:24;;;;;;;2.67;2.47;;;;;;;5.44;77.36;99109.75;6179967;28;20609;-75
2021/12/15 14:17:26;;;;;;;3.70;2.33;;;;;;;5.40;77.67;99114.22;6179956;28;20224;-74
2021/12/15 14:20:30;;;;;;;3.30;2.60;;;;;;;5.39;77.69;99111.69;6180220;28;20531;-72
2021/12/15 14:23:36;;;;;;;3.00;2.63;;;;;;;5.37;77.51;99113.50;6178037;28;20237;-75
2021/12/15 14:26:55;;;;;;;3.37;2.60;;;;;;;5.33;76.83;99110.16;6164922;28;20328;-76
2021/12/15 14:29:57;;;;;;;4.30;2.83;;;;;;;5.32;77.27;99113.66;6180673;28;20235;-75
2021/12/15 14:33:16;;;;;;;2.33;2.13;;;;;;;5.29;77.78;99105.91;6174423;28;20572;-75
2021/12/15 14:36:26;;;;;;;2.90;2.43;;;;;;;5.27;77.11;99110.38;6176824;28;20222;-75
2021/12/15 14:39:33;;;;;;;2.20;2.00;;;;;;;5.26;77.66;99110.44;6178952;28;20308;-72
2021/12/15 14:42:38;;;;;;;2.20;2.00;;;;;;;5.26;77.99;99105.19;6180455;28;20640;-74
2021/12/15 14:45:45;;;;;;;2.90;2.37;;;;;;;5.23;77.61;99100.91;6180408;28;20237;-74
2021/12/15 14:48:58;;;;;;;3.43;2.50;;;;;;;5.18;78.15;99093.25;6171684;28;20228;-74
2021/12/15 14:52:04;;;;;;;3.10;2.57;;;;;;;5.16;78.32;99099.44;6179394;28;20280;-74
2021/12/15 14:55:17;;;;;;;3.33;2.93;;;;;;;5.14;78.21;99094.25;6178161;28;20236;-74
2021/12/15 14:58:39;;;;;;;6.47;2.90;;;;;;;5.10;77.62;99103.09;6181530;28;20605;-74
2021/12/15 15:01:48;;;;;;;3.17;2.87;;;;;;;5.09;77.83;99101.41;6178966;28;20233;-75
2021/12/15 15:04:54;;;;;;;2.93;2.50;;;;;;;5.08;78.11;99093.63;6170617;28;20698;-75
2021/12/15 15:08:11;;;;;;;3.03;2.57;;;;;;;5.06;77.81;99103.28;6179568;28;20284;-75
2021/12/15 15:11:16;;;;;;;3.57;2.60;;;;;;;5.05;77.57;99109.44;6179196;28;20237;-75
2021/12/15 15:14:30;;;;;;;3.07;2.60;;;;;;;5.04;77.43;99111.19;6179373;28;20233;-75
2021/12/15 15:20:55;;;;;;;3.60;2.70;;;;;;;5.01;77.68;99121.75;6184310;28;20233;-75
2021/12/15 15:23:58;;;;;;;4.07;2.60;;;;;;;5.01;77.73;99126.97;6178798;28;20236;-74
2021/12/15 15:27:07;;;;;;;3.00;2.60;;;;;;;5.02;78.12;99127.84;6178950;28;20376;-76
2021/12/15 15:30:20;;;;;;;2.20;1.97;;;;;;;4.98;78.31;99134.09;6179700;28;20743;-72
2021/12/15 15:33:27;;;;;;;2.60;2.23;;;;;;;4.93;79.08;99131.63;6169739;28;20336;-75
2021/12/15 15:36:30;;;;;;;2.37;2.17;;;;;;;4.89;79.03;99132.63;6144133;28;20233;-75
2021/12/15 15:40:18;;;;;;;1.80;1.70;;;;;;;4.82;79.79;99134.59;6177272;28;20303;-74
2021/12/15 15:43:33;;;;;;;2.47;2.10;;;;;;;4.79;79.78;99136.50;6179800;28;20225;-75
2021/12/15 15:46:40;;;;;;;2.63;2.00;;;;;;;4.78;79.38;99134.78;6178220;28;20237;-74
2021/12/15 15:49:59;;;;;;;2.33;2.00;;;;;;;4.78;79.96;99130.41;6171465;28;20229;-75
2021/12/15 15:53:04;;;;;;;2.47;1.77;;;;;;;4.77;79.97;99127.84;6178583;28;20225;-75
2021/12/15 15:56:13;;;;;;;2.53;2.20;;;;;;;4.75;79.77;99132.25;6178330;28;20229;-75
2021/12/15 15:59:19;;;;;;;2.47;2.00;;;;;;;4.73;80.44;99132.31;6179344;28;20380;-75
2021/12/15 16:02:21;;;;;;;3.27;2.27;;;;;;;4.71;80.45;99131.50;6178422;28;20229;-75
2021/12/15 16:05:25;;;;;;;3.17;2.20;;;;;;;4.72;80.71;99141.06;6166480;28;20289;-74
2021/12/15 16:08:29;;;;;;;3.93;2.20;;;;;;;4.70;80.20;99147.22;6187891;28;20268;-72
2021/12/15 16:11:35;;;;;;;2.07;1.87;;;;;;;4.69;81.01;99145.56;6181531;28;20240;-75
2021/12/15 16:14:50;;;;;;;2.50;1.90;;;;;;;4.69;80.26;99142.94;6182188;28;20220;-75